Mc Intosh, South Dakota
Current Conditions -  °F | °C
As of 7:53 PM on Sunday 21 Dec 2014 (Local Time) from KHEI Reporting Station
Overcast Overcast  
Wind Chill: 29°   Ceiling: 6500
Heat Index: 36°   Visibility: 10mi
Dew Point: 34°   Wind: 9mph
Humidity: 93%   Direction: 270°W
Pressure: 29.39"   Gusts: NA
Location:  45.6857°N, 101.624°W
Report Text: KHEI 220253Z AUTO 27008KT 10SM SCT027 OVC065 02/01 A2939 RMK AO2 RAE01UPB01E06 SLP978 P0000 60000 T00220011 53002
Loading
Personal Weather Stations






























Interactive Weather Map New forecast layout! Learn more

10-Day Weather Forecast

Advertisements
Track Severe Weather on mobile